Marianne — VRFM5 — position and weather

sailwx.info

Track history (hours):
 
Tides and Currents Weather Stations Pressure Air Temp Water Temp Dewpoint Dewpoint Depression Visibility Wind Speed Wind Dir Waves Ship Positions

Marianne

Last reported at 2015-Apr-26 17:17 UTC. Time now 2015-Apr-28 18:17 UTC.
Position N 58°48' W 002°32'.

Length 97 m; draft 5.5 m.

Type: Ship (hazmat cat B). MMSI: 477560836.

Date/timePositionNaut miles runAvg speedWind from/ knotsBaromVisibWave heightAir tempDewpointWater temp
2015-Apr-26 17:17N 58°48' W 002°32'1013.6
2015-Apr-26 16:33N 58°43' W 002°49'1615.5
2015-Apr-26 15:31N 58°43' W 003°20'1414.7
2015-Apr-26 14:33N 58°43' W 003°47'1413.6
2015-Apr-26 13:33N 58°43' W 004°13'4110.2
2015-Apr-26 09:33N 58°25' W 005°24'1010.0
2015-Apr-26 08:33N 58°16' W 005°34'1111.1
2015-Apr-26 07:33N 58°07' W 005°45'1211.4
2015-Apr-26 06:30N 57°57' W 005°57'13710.6
2015-Apr-25 17:33N 55°44' W 006°57'1111.1
2015-Apr-25 16:33N 55°36' W 006°44'1111.4
2015-Apr-25 15:33N 55°29' W 006°27'1211.8
2015-Apr-25 14:33N 55°25' W 006°08'1010.2
2015-Apr-25 13:33N 55°19' W 005°54'1110.8
2015-Apr-25 12:33N 55°09' W 005°45'1311.9
2015-Apr-25 11:30N 54°57' W 005°37'1112.0
2015-Apr-25 10:33N 54°46' W 005°36'10 9.7
2015-Apr-25 09:32N 54°40' W 005°50'4 0.2
2015-Apr-24 09:27N 54°37' W 005°53'6 6.2
2015-Apr-24 08:33N 54°41' W 005°47'3 3.2
2015-Apr-24 07:33N 54°41' W 005°42'0 0.0
2015-Apr-24 06:33N 54°41' W 005°42'0 0.0
2015-Apr-24 05:34N 54°41' W 005°42'6 6.4
2015-Apr-24 04:33N 54°47' W 005°36'2712.7
2015-Apr-24 02:27N 55°11' W 005°55'1314.8
2015-Apr-24 01:33N 55°21' W 006°09'1514.6
2015-Apr-24 00:33N 55°29' W 006°32'1615.9
2015-Apr-23 23:33N 55°39' W 006°53'14812.4
2015-Apr-23 11:33N 58°05' W 006°05'1312.7
2015-Apr-23 10:33N 58°15' W 005°49'1312.7
2015-Apr-23 09:33N 58°24' W 005°32'4411.1
2015-Apr-23 05:33N 58°43' W 004°15'1211.7
2015-Apr-23 04:33N 58°43' W 003°53'1312.9
2015-Apr-23 03:33N 58°43' W 003°28'1313.0
2015-Apr-23 02:33N 58°42' W 003°03'1010.2
2015-Apr-23 01:33N 58°34' W 002°52'5112.6
2015-Apr-22 21:29N 57°53' W 001°53'1414.8
2015-Apr-22 20:33N 57°42' W 001°38'1414.5
2015-Apr-22 19:33N 57°28' W 001°33'1414.4
2015-Apr-22 18:33N 57°13' W 001°31'12213.5
2015-Apr-22 09:30N 55°12' W 001°10'1313.7
2015-Apr-22 08:31N 54°59' W 001°08'1313.2
2015-Apr-22 07:33N 54°46' W 001°07'9 7.1
2015-Apr-22 06:19N 54°37' W 001°10'0 0.0
2015-Apr-22 05:19N 54°37' W 001°10'0 0.0
2015-Apr-21 15:25N 54°37' W 001°10'0 0.0
2015-Apr-21 14:10N 54°37' W 001°10'0 0.0
2015-Apr-21 13:07N 54°37' W 001°10'0 0.0
2015-Apr-21 12:28N 54°37' W 001°10'0 0.0
2015-Apr-21 10:28N 54°37' W 001°10'0 0.0
2015-Apr-21 09:10N 54°37' W 001°10'0 0.0
2015-Apr-21 08:31N 54°37' W 001°10'0 0.0
2015-Apr-21 07:31N 54°37' W 001°10'0 0.0
2015-Apr-21 06:19N 54°37' W 001°10'0 0.0
2015-Apr-20 15:16N 54°37' W 001°10'0 0.0
2015-Apr-20 14:16N 54°37' W 001°10'0 0.0
2015-Apr-20 12:22N 54°37' W 001°10'0 0.0
2015-Apr-20 11:25N 54°37' W 001°10'0 0.0
2015-Apr-20 10:07N 54°37' W 001°10'0 0.0
2015-Apr-20 09:25N 54°37' W 001°10'0 0.0
2015-Apr-20 08:28N 54°37' W 001°10'0 0.0
2015-Apr-20 07:13N 54°37' W 001°10'0 0.0
2015-Apr-20 06:25N 54°37' W 001°10'0 0.0
2015-Apr-20 05:25N 54°37' W 001°10'0 0.0
2015-Apr-19 18:21N 54°38' W 001°09'5 6.0
2015-Apr-19 17:33N 54°40' W 001°02'0 0.3
2015-Apr-19 16:32N 54°40' W 001°02'0 0.0
2015-Apr-19 15:32N 54°40' W 001°01'0 0.0
2015-Apr-19 14:32N 54°40' W 001°01'0 0.0
2015-Apr-19 13:32N 54°40' W 001°02'0 0.0
2015-Apr-19 12:32N 54°40' W 001°02'0 0.0
2015-Apr-19 11:32N 54°40' W 001°02'0 0.0
2015-Apr-19 10:32N 54°40' W 001°02'0 0.0
2015-Apr-19 09:32N 54°40' W 001°02'0 0.0
2015-Apr-19 08:32N 54°40' W 001°02'0 0.0
2015-Apr-19 07:32N 54°40' W 001°02'0 0.0
2015-Apr-19 06:29N 54°40' W 001°02'0 0.0
2015-Apr-19 05:31N 54°40' W 001°01'0 0.0
2015-Apr-19 04:32N 54°40' W 001°01'0 0.0
2015-Apr-19 03:32N 54°40' W 001°01'0 0.0
2015-Apr-19 02:29N 54°40' W 001°01'0 0.0
2015-Apr-19 01:32N 54°40' W 001°01'0 0.0
2015-Apr-19 00:29N 54°40' W 001°02'0 0.0
2015-Apr-18 23:32N 54°40' W 001°02'0 0.0
2015-Apr-18 22:32N 54°40' W 001°02'0 0.0
2015-Apr-18 21:32N 54°40' W 001°02'0 0.0
2015-Apr-18 20:33N 54°40' W 001°02'0 0.0
2015-Apr-18 19:32N 54°40' W 001°02'0 0.0
2015-Apr-18 18:32N 54°40' W 001°02'0 0.0
2015-Apr-18 17:32N 54°40' W 001°02'0 0.0
2015-Apr-18 16:32N 54°40' W 001°01'0 0.0
2015-Apr-18 15:32N 54°40' W 001°01'0 0.0
2015-Apr-18 14:32N 54°40' W 001°01'0 0.0
2015-Apr-18 13:14N 54°40' W 001°01'0 0.0
2015-Apr-18 12:29N 54°40' W 001°02'0 0.0
2015-Apr-18 11:29N 54°40' W 001°02'0 0.1
2015-Apr-18 10:29N 54°40' W 001°02'0 0.0
2015-Apr-18 09:32N 54°40' W 001°02'0 0.0
2015-Apr-18 08:29N 54°40' W 001°02'0 0.0
2015-Apr-18 07:32N 54°40' W 001°02'0 0.0
2015-Apr-18 06:33N 54°40' W 001°02'0 0.0
2015-Apr-18 05:30N 54°40' W 001°02'0 0.1
2015-Apr-18 04:32N 54°40' W 001°01'10 9.7
2015-Apr-18 03:33N 54°37' W 000°45'1211.8
2015-Apr-18 02:33N 54°32' W 000°27'1212.1
2015-Apr-18 01:33N 54°24' W 000°12'1312.7
2015-Apr-18 00:33N 54°15' E 000°03'1413.7
2015-Apr-17 23:33N 54°04' E 000°17'1514.6
2015-Apr-17 22:33N 53°53' E 000°33'4614.3
2015-Apr-17 19:21N 53°14' E 001°15'911.4
2015-Apr-17 18:33N 53°07' E 001°24'1111.3
2015-Apr-17 17:33N 53°01' E 001°40'1211.6
2015-Apr-17 16:33N 52°56' E 001°57'1812.9
2015-Apr-17 15:11N 52°42' E 002°15'914.7
2015-Apr-17 14:34N 52°33' E 002°18'5512.9
2015-Apr-17 10:18N 51°46' E 003°05'2011.1
2015-Apr-17 08:32N 51°31' E 003°26'9 9.3
2015-Apr-17 07:33N 51°26' E 003°38'1110.6
2015-Apr-17 06:33N 51°21' E 003°53'9 8.7
2015-Apr-17 05:34N 51°22' E 004°07'6 6.4
2015-Apr-17 04:34N 51°21' E 004°17'0 0.0
2015-Apr-17 03:34N 51°21' E 004°17'5 5.2
2015-Apr-17 02:31N 51°16' E 004°20'0 0.0
2015-Apr-17 01:19N 51°16' E 004°20'0 0.0
2015-Apr-17 00:31N 51°16' E 004°20'0 0.0
2015-Apr-16 23:31N 51°16' E 004°20'0 0.0
2015-Apr-16 22:31N 51°16' E 004°20'0 0.0
2015-Apr-16 21:31N 51°16' E 004°20'0 0.0
2015-Apr-16 20:31N 51°16' E 004°20'0 0.0
2015-Apr-16 19:31N 51°16' E 004°20'0 0.0
2015-Apr-16 18:31N 51°16' E 004°20'0 0.0
2015-Apr-16 17:28N 51°16' E 004°20'  
Track history (hours):
 
Tides and Currents Weather Stations Pressure Air Temp Water Temp Dewpoint Dewpoint Depression Visibility Wind Speed Wind Dir Waves Ship Positions

Marianne

Last reported at 2015-Apr-26 17:17 UTC. Time now 2015-Apr-28 18:17 UTC.
Position N 58°48' W 002°32'.

Length 97 m; draft 5.5 m.

Type: Ship (hazmat cat B). MMSI: 477560836.

Date/timePositionNaut miles runAvg speedWind from/ knotsBaromVisibWave heightAir tempDewpointWater temp
2015-Apr-26 17:17N 58°48' W 002°32'1013.6
2015-Apr-26 16:33N 58°43' W 002°49'1615.5
2015-Apr-26 15:31N 58°43' W 003°20'1414.7
2015-Apr-26 14:33N 58°43' W 003°47'1413.6
2015-Apr-26 13:33N 58°43' W 004°13'4110.2
2015-Apr-26 09:33N 58°25' W 005°24'1010.0
2015-Apr-26 08:33N 58°16' W 005°34'1111.1
2015-Apr-26 07:33N 58°07' W 005°45'1211.4
2015-Apr-26 06:30N 57°57' W 005°57'13710.6
2015-Apr-25 17:33N 55°44' W 006°57'1111.1
2015-Apr-25 16:33N 55°36' W 006°44'1111.4
2015-Apr-25 15:33N 55°29' W 006°27'1211.8
2015-Apr-25 14:33N 55°25' W 006°08'1010.2
2015-Apr-25 13:33N 55°19' W 005°54'1110.8
2015-Apr-25 12:33N 55°09' W 005°45'1311.9
2015-Apr-25 11:30N 54°57' W 005°37'1112.0
2015-Apr-25 10:33N 54°46' W 005°36'10 9.7
2015-Apr-25 09:32N 54°40' W 005°50'4 0.2
2015-Apr-24 09:27N 54°37' W 005°53'6 6.2
2015-Apr-24 08:33N 54°41' W 005°47'3 3.2
2015-Apr-24 07:33N 54°41' W 005°42'0 0.0
2015-Apr-24 06:33N 54°41' W 005°42'0 0.0
2015-Apr-24 05:34N 54°41' W 005°42'6 6.4
2015-Apr-24 04:33N 54°47' W 005°36'2712.7
2015-Apr-24 02:27N 55°11' W 005°55'1314.8
2015-Apr-24 01:33N 55°21' W 006°09'1514.6
2015-Apr-24 00:33N 55°29' W 006°32'1615.9
2015-Apr-23 23:33N 55°39' W 006°53'14812.4
2015-Apr-23 11:33N 58°05' W 006°05'1312.7
2015-Apr-23 10:33N 58°15' W 005°49'1312.7
2015-Apr-23 09:33N 58°24' W 005°32'4411.1
2015-Apr-23 05:33N 58°43' W 004°15'1211.7
2015-Apr-23 04:33N 58°43' W 003°53'1312.9
2015-Apr-23 03:33N 58°43' W 003°28'1313.0
2015-Apr-23 02:33N 58°42' W 003°03'1010.2
2015-Apr-23 01:33N 58°34' W 002°52'5112.6
2015-Apr-22 21:29N 57°53' W 001°53'1414.8
2015-Apr-22 20:33N 57°42' W 001°38'1414.5
2015-Apr-22 19:33N 57°28' W 001°33'1414.4
2015-Apr-22 18:33N 57°13' W 001°31'12213.5
2015-Apr-22 09:30N 55°12' W 001°10'1313.7
2015-Apr-22 08:31N 54°59' W 001°08'1313.2
2015-Apr-22 07:33N 54°46' W 001°07'9 7.1
2015-Apr-22 06:19N 54°37' W 001°10'0 0.0
2015-Apr-22 05:19N 54°37' W 001°10'0 0.0
2015-Apr-21 15:25N 54°37' W 001°10'0 0.0
2015-Apr-21 14:10N 54°37' W 001°10'0 0.0
2015-Apr-21 13:07N 54°37' W 001°10'0 0.0
2015-Apr-21 12:28N 54°37' W 001°10'0 0.0
2015-Apr-21 10:28N 54°37' W 001°10'0 0.0
2015-Apr-21 09:10N 54°37' W 001°10'0 0.0
2015-Apr-21 08:31N 54°37' W 001°10'0 0.0
2015-Apr-21 07:31N 54°37' W 001°10'0 0.0
2015-Apr-21 06:19N 54°37' W 001°10'0 0.0
2015-Apr-20 15:16N 54°37' W 001°10'0 0.0
2015-Apr-20 14:16N 54°37' W 001°10'0 0.0
2015-Apr-20 12:22N 54°37' W 001°10'0 0.0
2015-Apr-20 11:25N 54°37' W 001°10'0 0.0
2015-Apr-20 10:07N 54°37' W 001°10'0 0.0
2015-Apr-20 09:25N 54°37' W 001°10'0 0.0
2015-Apr-20 08:28N 54°37' W 001°10'0 0.0
2015-Apr-20 07:13N 54°37' W 001°10'0 0.0
2015-Apr-20 06:25N 54°37' W 001°10'0 0.0
2015-Apr-20 05:25N 54°37' W 001°10'0 0.0
2015-Apr-19 18:21N 54°38' W 001°09'5 6.0
2015-Apr-19 17:33N 54°40' W 001°02'0 0.3
2015-Apr-19 16:32N 54°40' W 001°02'0 0.0
2015-Apr-19 15:32N 54°40' W 001°01'0 0.0
2015-Apr-19 14:32N 54°40' W 001°01'0 0.0
2015-Apr-19 13:32N 54°40' W 001°02'0 0.0
2015-Apr-19 12:32N 54°40' W 001°02'0 0.0
2015-Apr-19 11:32N 54°40' W 001°02'0 0.0
2015-Apr-19 10:32N 54°40' W 001°02'0 0.0
2015-Apr-19 09:32N 54°40' W 001°02'0 0.0
2015-Apr-19 08:32N 54°40' W 001°02'0 0.0
2015-Apr-19 07:32N 54°40' W 001°02'0 0.0
2015-Apr-19 06:29N 54°40' W 001°02'0 0.0
2015-Apr-19 05:31N 54°40' W 001°01'0 0.0
2015-Apr-19 04:32N 54°40' W 001°01'0 0.0
2015-Apr-19 03:32N 54°40' W 001°01'0 0.0
2015-Apr-19 02:29N 54°40' W 001°01'0 0.0
2015-Apr-19 01:32N 54°40' W 001°01'0 0.0
2015-Apr-19 00:29N 54°40' W 001°02'0 0.0
2015-Apr-18 23:32N 54°40' W 001°02'0 0.0
2015-Apr-18 22:32N 54°40' W 001°02'0 0.0
2015-Apr-18 21:32N 54°40' W 001°02'0 0.0
2015-Apr-18 20:33N 54°40' W 001°02'0 0.0
2015-Apr-18 19:32N 54°40' W 001°02'0 0.0
2015-Apr-18 18:32N 54°40' W 001°02'0 0.0
2015-Apr-18 17:32N 54°40' W 001°02'0 0.0
2015-Apr-18 16:32N 54°40' W 001°01'0 0.0
2015-Apr-18 15:32N 54°40' W 001°01'0 0.0
2015-Apr-18 14:32N 54°40' W 001°01'0 0.0
2015-Apr-18 13:14N 54°40' W 001°01'0 0.0
2015-Apr-18 12:29N 54°40' W 001°02'0 0.0
2015-Apr-18 11:29N 54°40' W 001°02'0 0.1
2015-Apr-18 10:29N 54°40' W 001°02'0 0.0
2015-Apr-18 09:32N 54°40' W 001°02'0 0.0
2015-Apr-18 08:29N 54°40' W 001°02'0 0.0
2015-Apr-18 07:32N 54°40' W 001°02'0 0.0
2015-Apr-18 06:33N 54°40' W 001°02'0 0.0
2015-Apr-18 05:30N 54°40' W 001°02'0 0.1
2015-Apr-18 04:32N 54°40' W 001°01'10 9.7
2015-Apr-18 03:33N 54°37' W 000°45'1211.8
2015-Apr-18 02:33N 54°32' W 000°27'1212.1
2015-Apr-18 01:33N 54°24' W 000°12'1312.7
2015-Apr-18 00:33N 54°15' E 000°03'1413.7
2015-Apr-17 23:33N 54°04' E 000°17'1514.6
2015-Apr-17 22:33N 53°53' E 000°33'4614.3
2015-Apr-17 19:21N 53°14' E 001°15'911.4
2015-Apr-17 18:33N 53°07' E 001°24'1111.3
2015-Apr-17 17:33N 53°01' E 001°40'1211.6
2015-Apr-17 16:33N 52°56' E 001°57'1812.9
2015-Apr-17 15:11N 52°42' E 002°15'914.7
2015-Apr-17 14:34N 52°33' E 002°18'5512.9
2015-Apr-17 10:18N 51°46' E 003°05'2011.1
2015-Apr-17 08:32N 51°31' E 003°26'9 9.3
2015-Apr-17 07:33N 51°26' E 003°38'1110.6
2015-Apr-17 06:33N 51°21' E 003°53'9 8.7
2015-Apr-17 05:34N 51°22' E 004°07'6 6.4
2015-Apr-17 04:34N 51°21' E 004°17'0 0.0
2015-Apr-17 03:34N 51°21' E 004°17'5 5.2
2015-Apr-17 02:31N 51°16' E 004°20'0 0.0
2015-Apr-17 01:19N 51°16' E 004°20'0 0.0
2015-Apr-17 00:31N 51°16' E 004°20'0 0.0
2015-Apr-16 23:31N 51°16' E 004°20'0 0.0
2015-Apr-16 22:31N 51°16' E 004°20'0 0.0
2015-Apr-16 21:31N 51°16' E 004°20'0 0.0
2015-Apr-16 20:31N 51°16' E 004°20'0 0.0
2015-Apr-16 19:31N 51°16' E 004°20'0 0.0
2015-Apr-16 18:31N 51°16' E 004°20'0 0.0
2015-Apr-16 17:28N 51°16' E 004°20'  

Dump ship's entire track history